Time;durP1;ratioP1;P1;durP2;ratioP2;P2;SDS_P1;SDS_P2;PMS_P1;PMS_P2;Temp;Humidity;BMP_temperature;BMP_pressure;BME280_temperature;BME280_humidity;BME280_pressure;Samples;Min_cycle;Max_cycle;Signal;HPM_P1;HPM_P2
2023/04/29 00:03:54;;;;;;;8.07;6.13;;;10.10;99.90;;;;;;8303942;28;20272;-69
2023/04/29 00:07:56;;;;;;;12.27;9.13;;;10.20;99.90;;;;;;8303676;28;20193;-68
2023/04/29 00:11:58;;;;;;;25.40;15.23;;;10.20;99.90;;;;;;8301252;28;20204;-68
2023/04/29 00:15:59;;;;;;;17.63;12.23;;;10.20;82.60;;;;;;8296160;28;20218;-69
2023/04/29 00:20:07;;;;;;;12.77;8.90;;;10.30;68.00;;;;;;8317542;28;20191;-67
2023/04/29 00:24:11;;;;;;;9.63;7.10;;;10.30;87.70;;;;;;8302048;28;20279;-68
2023/04/29 00:28:15;;;;;;;10.37;6.87;;;10.20;99.90;;;;;;8301338;28;20183;-70
2023/04/29 00:32:17;;;;;;;7.90;6.30;;;10.10;99.90;;;;;;8300235;28;20275;-68
2023/04/29 00:36:21;;;;;;;7.77;6.53;;;10.00;99.90;;;;;;8299214;28;20215;-67
2023/04/29 00:40:23;;;;;;;9.40;6.93;;;10.00;99.90;;;;;;8310876;28;20179;-67
2023/04/29 00:44:29;;;;;;;8.83;6.70;;;10.00;99.90;;;;;;8303320;28;20187;-65
2023/04/29 00:48:31;;;;;;;9.00;7.30;;;10.00;99.90;;;;;;8307214;28;20257;-66
2023/04/29 00:52:34;;;;;;;8.43;5.90;;;10.00;99.90;;;;;;8306820;28;20283;-65
2023/04/29 00:56:36;;;;;;;8.23;5.80;;;10.10;99.90;;;;;;8316231;28;20218;-66
2023/04/29 01:00:38;;;;;;;8.67;6.40;;;10.10;99.90;;;;;;8301044;28;20189;-65
2023/04/29 01:04:38;;;;;;;8.60;7.07;;;10.10;99.90;;;;;;8306070;28;20194;-65
2023/04/29 01:09:21;;;;;;;10.73;7.37;;;10.10;99.90;;;;;;8303680;28;20300;-66
2023/04/29 01:13:30;;;;;;;9.60;7.47;;;10.20;99.90;;;;;;8296775;28;20197;-65
2023/04/29 01:17:58;;;;;;;10.33;7.23;;;10.20;99.90;;;;;;8309414;28;20218;-65
2023/04/29 01:22:00;;;;;;;9.83;7.43;;;10.20;99.90;;;;;;8304205;28;20221;-66
2023/04/29 01:26:01;;;;;;;11.67;8.93;;;10.20;99.90;;;;;;8302786;28;20179;-66
2023/04/29 01:30:36;;;;;;;12.67;9.13;;;10.20;99.90;;;;;;8306100;28;20184;-65
2023/04/29 01:34:43;;;;;;;11.90;9.33;;;10.30;99.90;;;;;;8303113;28;20206;-65
2023/04/29 01:39:08;;;;;;;11.50;10.03;;;10.30;99.90;;;;;;8308408;28;20208;-66
2023/04/29 01:43:11;;;;;;;11.70;9.80;;;10.30;99.90;;;;;;8305047;28;20215;-65
2023/04/29 01:47:16;;;;;;;14.47;10.37;;;10.30;99.90;;;;;;8305329;28;20200;-66
2023/04/29 01:51:24;;;;;;;14.50;10.83;;;10.30;99.90;;;;;;8281008;28;20221;-65
2023/04/29 01:55:26;;;;;;;16.30;11.57;;;10.30;96.60;;;;;;8299926;28;20209;-65
2023/04/29 01:59:27;;;;;;;14.40;10.33;;;10.30;95.60;;;;;;8299432;28;20187;-66
2023/04/29 02:03:31;;;;;;;13.97;9.17;;;10.30;93.00;;;;;;8294324;28;20287;-66
2023/04/29 02:07:32;;;;;;;15.80;12.00;;;10.40;92.20;;;;;;8296134;28;20225;-66
2023/04/29 02:11:33;;;;;;;13.70;10.43;;;10.40;90.40;;;;;;8301290;28;20201;-66
2023/04/29 02:15:34;;;;;;;13.83;11.17;;;10.40;78.50;;;;;;8302390;28;20223;-65
2023/04/29 02:19:35;;;;;;;15.47;10.87;;;10.40;74.20;;;;;;8315135;28;20234;-66
2023/04/29 02:23:36;;;;;;;14.33;11.23;;;10.40;66.40;;;;;;8298734;28;20209;-66
2023/04/29 02:27:50;;;;;;;13.23;10.83;;;10.30;67.40;;;;;;8292709;28;20194;-65
2023/04/29 02:31:57;;;;;;;15.27;10.90;;;10.30;77.50;;;;;;8298108;28;20194;-65
2023/04/29 02:35:58;;;;;;;11.97;9.83;;;10.20;83.90;;;;;;8300125;28;20262;-65
2023/04/29 02:40:19;;;;;;;13.00;10.37;;;10.20;94.20;;;;;;8298313;28;20179;-65
2023/04/29 02:44:32;;;;;;;13.27;10.50;;;10.10;99.90;;;;;;8313342;28;20214;-65
2023/04/29 02:48:33;;;;;;;18.63;12.20;;;10.10;99.90;;;;;;8311024;28;20201;-65
2023/04/29 02:52:34;;;;;;;15.83;12.73;;;10.00;99.90;;;;;;8308387;28;20187;-65
2023/04/29 02:56:44;;;;;;;13.40;11.23;;;10.00;99.90;;;;;;8313251;28;20223;-66
2023/04/29 03:00:49;;;;;;;13.67;10.00;;;9.90;99.90;;;;;;8300797;28;20192;-65
2023/04/29 03:04:56;;;;;;;13.30;10.17;;;9.90;99.90;;;;;;8298692;28;20193;-65
2023/04/29 03:08:57;;;;;;;15.57;10.97;;;9.90;99.90;;;;;;8300106;28;20202;-66
2023/04/29 03:12:58;;;;;;;16.03;11.47;;;9.90;99.90;;;;;;8298877;28;20194;-65
2023/04/29 03:16:59;;;;;;;17.37;11.33;;;9.90;99.90;;;;;;8296972;28;20240;-68
2023/04/29 03:21:03;;;;;;;15.47;10.53;;;9.90;99.90;;;;;;8296754;28;20310;-67
2023/04/29 03:25:05;;;;;;;12.77;10.03;;;9.80;99.90;;;;;;8299253;28;20188;-68
2023/04/29 03:29:06;;;;;;;13.23;10.40;;;9.80;99.90;;;;;;8299714;28;20264;-68
2023/04/29 03:33:07;;;;;;;12.53;10.63;;;9.80;99.90;;;;;;8298151;28;20352;-67
2023/04/29 03:37:08;;;;;;;11.47;9.47;;;9.80;99.90;;;;;;8309562;28;20221;-68
2023/04/29 03:41:09;;;;;;;12.27;9.57;;;9.80;99.90;;;;;;8301646;28;20262;-68
2023/04/29 03:45:16;;;;;;;12.10;9.63;;;9.90;99.90;;;;;;8301026;28;20221;-68
2023/04/29 03:49:17;;;;;;;13.00;9.37;;;9.90;99.90;;;;;;8298953;28;20191;-68
2023/04/29 03:53:19;;;;;;;12.43;10.40;;;9.90;99.90;;;;;;8299362;28;20198;-68
2023/04/29 03:57:23;;;;;;;17.23;10.57;;;9.90;99.90;;;;;;8308636;28;20320;-69
2023/04/29 04:01:27;;;;;;;12.80;9.90;;;9.90;99.90;;;;;;8297116;28;20190;-69
2023/04/29 04:05:28;;;;;;;12.10;9.43;;;9.90;99.90;;;;;;8298938;28;20244;-68
2023/04/29 04:09:29;;;;;;;10.37;8.73;;;10.00;99.90;;;;;;8313471;28;20199;-68
2023/04/29 04:13:33;;;;;;;9.50;8.43;;;10.10;99.90;;;;;;8298917;28;20210;-68
2023/04/29 04:17:37;;;;;;;10.10;8.40;;;10.20;99.90;;;;;;8293085;28;20281;-70
2023/04/29 04:21:38;;;;;;;10.53;8.43;;;10.30;99.90;;;;;;8299286;28;20200;-67
2023/04/29 04:25:46;;;;;;;7.83;7.00;;;10.40;99.90;;;;;;8316724;28;20191;-69
2023/04/29 04:29:47;;;;;;;9.77;7.20;;;10.60;99.90;;;;;;8304879;28;20193;-68
2023/04/29 04:33:50;;;;;;;5.27;4.63;;;10.80;99.90;;;;;;8301619;28;20194;-65
2023/04/29 04:37:54;;;;;;;5.77;4.93;;;11.10;99.90;;;;;;8303793;28;20190;-66
2023/04/29 04:41:55;;;;;;;6.30;4.77;;;11.40;99.90;;;;;;8302582;28;20205;-65
2023/04/29 04:45:56;;;;;;;5.53;4.73;;;11.60;91.20;;;;;;8322406;28;20257;-66
2023/04/29 04:49:57;;;;;;;8.10;6.00;;;11.80;74.60;;;;;;8298521;28;20190;-66
2023/04/29 04:53:58;;;;;;;9.47;6.00;;;11.90;99.90;;;;;;8317653;28;20269;-65
2023/04/29 04:58:07;;;;;;;7.77;5.77;;;12.00;99.90;;;;;;8301223;28;20186;-64
2023/04/29 05:02:09;;;;;;;9.40;5.43;;;11.90;99.90;;;;;;8302497;28;20189;-63
2023/04/29 05:06:09;;;;;;;8.33;6.03;;;11.80;99.90;;;;;;8299106;28;20198;-64
2023/04/29 05:10:14;;;;;;;8.03;6.17;;;11.70;99.90;;;;;;8301199;28;20232;-63
2023/04/29 05:14:16;;;;;;;7.53;6.40;;;11.50;99.90;;;;;;8298759;28;20210;-65
2023/04/29 05:18:16;;;;;;;9.70;6.70;;;11.40;99.90;;;;;;8313069;28;20200;-64
2023/04/29 05:22:18;;;;;;;8.30;6.77;;;11.40;99.90;;;;;;8307191;28;20201;-64
2023/04/29 05:26:20;;;;;;;9.97;7.13;;;11.30;1.00;;;;;;8273541;28;20213;-64
2023/04/29 05:30:25;;;;;;;8.90;7.13;;;11.30;1.00;;;;;;8288985;28;20220;-64
2023/04/29 05:34:26;;;;;;;11.73;9.10;;;11.20;1.00;;;;;;8289276;28;20211;-68
2023/04/29 05:38:30;;;;;;;10.47;9.33;;;11.10;1.00;;;;;;8290238;28;20183;-68
2023/04/29 05:42:34;;;;;;;13.07;10.40;;;11.00;70.00;;;;;;8299945;28;20198;-67
2023/04/29 05:46:35;;;;;;;11.27;8.83;;;10.90;99.90;;;;;;8290332;28;20254;-66
2023/04/29 05:50:36;;;;;;;11.17;9.03;;;10.90;99.90;;;;;;8303575;28;20197;-68
2023/04/29 05:54:40;;;;;;;10.77;8.97;;;10.90;99.90;;;;;;8288758;28;20211;-64
2023/04/29 05:58:41;;;;;;;12.27;10.43;;;10.90;1.00;;;;;;8301757;28;20192;-62
2023/04/29 06:02:50;;;;;;;12.30;9.00;;;10.90;1.00;;;;;;8300062;28;20332;-64
2023/04/29 06:06:52;;;;;;;10.17;8.20;;;10.90;1.00;;;;;;8291284;28;20201;-63
2023/04/29 06:10:53;;;;;;;11.20;9.50;;;11.00;1.00;;;;;;8298741;28;20194;-62
2023/04/29 06:14:55;;;;;;;14.60;11.93;;;11.10;1.00;;;;;;8287591;28;20244;-63
2023/04/29 06:18:55;;;;;;;14.93;12.07;;;11.10;1.00;;;;;;8286206;28;20194;-64
2023/04/29 06:22:57;;;;;;;13.80;11.20;;;11.20;1.00;;;;;;8287497;28;20393;-64
2023/04/29 06:27:00;;;;;;;12.83;10.00;;;11.40;1.00;;;;;;8300650;28;20192;-64
2023/04/29 06:31:01;;;;;;;16.07;13.40;;;11.60;1.00;;;;;;8286012;28;20194;-65
2023/04/29 06:35:02;;;;;;;14.53;11.47;;;11.60;99.90;;;;;;8292054;28;20223;-62
2023/04/29 06:39:04;;;;;;;13.10;10.83;;;11.60;99.90;;;;;;8296938;28;20193;-62
2023/04/29 06:43:06;;;;;;;16.13;11.73;;;11.70;99.90;;;;;;8294764;28;20214;-63
2023/04/29 06:47:08;;;;;;;14.20;11.20;;;11.80;99.90;;;;;;8298296;28;20202;-68
2023/04/29 06:51:09;;;;;;;12.27;9.97;;;12.10;99.90;;;;;;8295420;28;20204;-68
2023/04/29 06:55:12;;;;;;;16.20;13.67;;;12.30;99.90;;;;;;8294203;28;20206;-64
2023/04/29 06:59:14;;;;;;;23.63;16.70;;;12.60;69.10;;;;;;8294373;28;20210;-64
2023/04/29 07:03:16;;;;;;;14.63;11.17;;;12.80;1.00;;;;;;8292303;28;20179;-64
2023/04/29 07:07:17;;;;;;;11.27;8.63;;;13.10;1.00;;;;;;8287773;28;20190;-63
2023/04/29 07:11:18;;;;;;;13.57;9.87;;;13.70;1.00;;;;;;8289396;28;20199;-64
2023/04/29 07:15:21;;;;;;;10.10;8.17;;;14.20;99.90;;;;;;8290258;28;20309;-65
2023/04/29 07:19:22;;;;;;;9.20;8.07;;;14.60;99.90;;;;;;8288315;28;20183;-64
2023/04/29 07:23:23;;;;;;;10.30;8.03;;;15.20;99.90;;;;;;8290346;28;20194;-65
2023/04/29 07:27:24;;;;;;;9.37;7.93;;;15.90;99.90;;;;;;8295706;28;20262;-65
2023/04/29 07:31:25;;;;;;;8.57;7.37;;;16.20;10.40;;;;;;8294197;28;20187;-66
2023/04/29 07:35:29;;;;;;;7.10;6.40;;;16.00;13.40;;;;;;8299681;28;20230;-65
2023/04/29 07:39:30;;;;;;;10.23;6.13;;;16.40;22.20;;;;;;8296896;28;20190;-64
2023/04/29 07:43:43;;;;;;;7.47;6.67;;;16.90;12.00;;;;;;8301631;28;20278;-65
2023/04/29 07:47:58;;;;;;;8.07;6.73;;;17.40;1.00;;;;;;8286600;28;20195;-64
2023/04/29 07:52:00;;;;;;;9.03;6.10;;;17.90;1.00;;;;;;8293430;28;20227;-64
2023/04/29 07:56:06;;;;;;;7.73;6.20;;;18.10;1.00;;;;;;8302390;28;20206;-64
2023/04/29 08:00:08;;;;;;;6.77;5.90;;;18.00;1.00;;;;;;8305794;28;20282;-67
2023/04/29 08:04:09;;;;;;;9.47;6.03;;;17.50;1.00;;;;;;8305371;28;20322;-66
2023/04/29 08:08:21;;;;;;;8.27;6.30;;;16.80;1.00;;;;;;8304142;28;20187;-66
2023/04/29 08:12:22;;;;;;;6.80;5.80;;;16.20;1.00;;;;;;8308071;28;20313;-66
2023/04/29 08:16:24;;;;;;;9.70;7.83;;;15.80;16.40;;;;;;8314921;28;20357;-67
2023/04/29 08:20:30;;;;;;;10.13;8.30;;;15.50;61.40;;;;;;8297192;28;20198;-66
2023/04/29 08:24:34;;;;;;;12.43;7.20;;;15.30;99.90;;;;;;8304961;28;20194;-66
2023/04/29 08:28:35;;;;;;;7.23;6.20;;;15.10;99.90;;;;;;8302985;28;20187;-65
2023/04/29 08:32:36;;;;;;;6.33;5.73;;;14.90;99.90;;;;;;8318047;28;20187;-66
2023/04/29 08:36:46;;;;;;;7.17;5.77;;;15.00;99.90;;;;;;8320214;28;20313;-66
2023/04/29 08:40:50;;;;;;;5.97;4.43;;;15.30;99.90;;;;;;8322152;28;20191;-63
2023/04/29 08:44:52;;;;;;;4.67;3.30;;;15.60;99.90;;;;;;8307373;28;20197;-67
2023/04/29 08:48:55;;;;;;;6.07;3.57;;;15.70;98.80;;;;;;8303089;28;20187;-65
2023/04/29 08:52:56;;;;;;;6.03;4.23;;;16.00;66.70;;;;;;8299300;28;20286;-64
2023/04/29 08:57:06;;;;;;;10.87;4.53;;;16.50;39.40;;;;;;8299319;28;20210;-64
2023/04/29 09:01:13;;;;;;;5.20;4.60;;;17.70;1.00;;;;;;8309761;28;20183;-67
2023/04/29 09:05:15;;;;;;;5.70;5.10;;;18.40;1.00;;;;;;8301487;28;20244;-67
2023/04/29 09:09:17;;;;;;;6.37;4.63;;;17.80;1.00;;;;;;8317044;28;20201;-67
2023/04/29 09:13:31;;;;;;;5.93;4.80;;;17.40;1.00;;;;;;8302403;28;20202;-67
2023/04/29 09:17:51;;;;;;;6.63;5.30;;;17.40;1.00;;;;;;8307211;28;20265;-67
2023/04/29 09:21:59;;;;;;;6.43;4.60;;;16.90;1.00;;;;;;8305800;28;20210;-67
2023/04/29 09:26:00;;;;;;;26.70;7.10;;;17.00;1.00;;;;;;8302363;28;20245;-66
2023/04/29 09:30:01;;;;;;;5.73;5.13;;;17.30;1.00;;;;;;8303672;28;20190;-67
2023/04/29 09:34:06;;;;;;;7.40;5.50;;;17.90;1.00;;;;;;8304838;28;20194;-67
2023/04/29 09:38:15;;;;;;;5.87;5.27;;;17.80;1.00;;;;;;8318402;28;20193;-66
2023/04/29 09:42:16;;;;;;;6.70;5.60;;;17.40;1.00;;;;;;8298665;28;20206;-66
2023/04/29 09:46:17;;;;;;;4.97;4.47;;;17.00;1.00;;;;;;8301327;28;20251;-65
2023/04/29 09:50:22;;;;;;;6.23;5.30;;;16.10;43.30;;;;;;8319826;28;20218;-67
2023/04/29 09:54:31;;;;;;;5.23;4.53;;;16.00;91.70;;;;;;8309324;28;20214;-66
2023/04/29 09:58:37;;;;;;;7.30;4.90;;;15.70;99.90;;;;;;8308399;28;20195;-64
2023/04/29 10:02:42;;;;;;;4.97;4.13;;;15.60;99.90;;;;;;8320083;28;20256;-65
2023/04/29 10:06:44;;;;;;;4.23;3.50;;;15.80;99.90;;;;;;8303987;28;20193;-65
2023/04/29 10:10:46;;;;;;;3.40;3.10;;;15.70;99.90;;;;;;8303490;28;20194;-65
2023/04/29 10:15:03;;;;;;;5.60;3.00;;;15.80;99.90;;;;;;8309447;28;20242;-66
2023/04/29 10:19:11;;;;;;;4.73;2.93;;;16.20;99.90;;;;;;8320925;28;20202;-65
2023/04/29 10:23:16;;;;;;;4.87;3.63;;;16.40;99.90;;;;;;8310667;28;20229;-67
2023/04/29 10:27:19;;;;;;;9.10;3.87;;;16.90;99.90;;;;;;8303316;28;20205;-65
2023/04/29 10:31:33;;;;;;;6.93;4.87;;;17.70;31.50;;;;;;8308462;28;20198;-66
2023/04/29 10:35:38;;;;;;;4.37;3.97;;;18.10;3.90;;;;;;8305345;28;20210;-67
2023/04/29 10:39:52;;;;;;;4.87;4.30;;;18.10;17.70;;;;;;8306941;28;20214;-67
2023/04/29 10:43:58;;;;;;;5.00;4.40;;;18.00;5.80;;;;;;8308287;28;20192;-66
2023/04/29 10:48:05;;;;;;;5.93;5.33;;;18.00;1.00;;;;;;8303764;28;20187;-67
2023/04/29 10:52:06;;;;;;;5.57;5.07;;;17.70;1.00;;;;;;8316856;28;20191;-67
2023/04/29 10:56:09;;;;;;;5.90;4.90;;;17.40;9.60;;;;;;8298656;28;20206;-66
2023/04/29 11:00:40;;;;;;;7.23;5.03;;;17.50;1.00;;;;;;8316079;28;20186;-66
2023/04/29 11:05:09;;;;;;;5.30;4.90;;;17.60;1.00;;;;;;8316184;28;20198;-66
2023/04/29 11:09:26;;;;;;;5.47;4.73;;;17.70;1.00;;;;;;8298168;28;20206;-66
2023/04/29 11:13:31;;;;;;;7.23;5.67;;;17.30;1.00;;;;;;8302158;28;20193;-67
2023/04/29 11:17:40;;;;;;;6.87;5.87;;;17.60;1.00;;;;;;8300894;28;20217;-64
2023/04/29 11:21:44;;;;;;;6.80;6.20;;;17.50;1.00;;;;;;8299663;28;20202;-65
2023/04/29 11:25:46;;;;;;;6.40;5.80;;;17.80;1.00;;;;;;8301904;28;20228;-66
2023/04/29 11:29:47;;;;;;;6.30;5.70;;;18.30;1.00;;;;;;8303627;28;20218;-65
2023/04/29 11:33:48;;;;;;;6.03;5.53;;;17.80;1.00;;;;;;8317834;28;20203;-65
2023/04/29 11:37:50;;;;;;;6.77;5.40;;;18.00;1.00;;;;;;8312871;28;20218;-67
2023/04/29 11:41:51;;;;;;;5.97;5.47;;;18.20;1.00;;;;;;8305343;28;20280;-66
2023/04/29 11:45:54;;;;;;;4.80;4.40;;;17.90;1.00;;;;;;8303364;28;20211;-65
2023/04/29 11:50:08;;;;;;;5.77;5.10;;;18.00;1.00;;;;;;8297143;28;20304;-64
2023/04/29 11:54:10;;;;;;;6.63;6.03;;;18.10;1.00;;;;;;8300679;28;20205;-65
2023/04/29 11:58:13;;;;;;;6.90;5.93;;;18.40;1.00;;;;;;8304259;28;20187;-64
2023/04/29 12:02:14;;;;;;;6.43;5.10;;;18.50;1.00;;;;;;8299476;28;20225;-64
2023/04/29 12:06:15;;;;;;;5.70;5.10;;;18.80;1.00;;;;;;8301540;28;20195;-64
2023/04/29 12:10:17;;;;;;;5.90;5.30;;;19.00;1.00;;;;;;8300376;28;20178;-66
2023/04/29 12:14:20;;;;;;;5.33;4.83;;;19.30;1.00;;;;;;8297712;28;20191;-65
2023/04/29 12:18:26;;;;;;;8.07;5.03;;;19.00;1.00;;;;;;8313488;28;20179;-66
2023/04/29 12:22:31;;;;;;;5.77;4.47;;;19.40;1.00;;;;;;8314497;28;20196;-65
2023/04/29 12:26:34;;;;;;;4.60;4.17;;;19.70;1.00;;;;;;8296520;28;20206;-65
2023/04/29 12:30:39;;;;;;;5.23;4.73;;;19.90;1.00;;;;;;8295851;28;20233;-65
2023/04/29 12:34:57;;;;;;;5.73;4.87;;;19.30;1.00;;;;;;8259601;28;20273;-65
2023/04/29 12:38:58;;;;;;;3.93;3.63;;;18.40;1.00;;;;;;8262499;28;20203;-66
2023/04/29 12:43:07;;;;;;;5.13;4.63;;;17.60;1.00;;;;;;8264087;28;20188;-65
2023/04/29 12:47:09;;;;;;;4.73;4.27;;;17.70;1.00;;;;;;8255072;28;20207;-64
2023/04/29 12:51:11;;;;;;;5.20;4.23;;;17.10;1.00;;;;;;8267812;28;20201;-64
2023/04/29 12:55:12;;;;;;;5.13;3.97;;;17.00;1.00;;;;;;8265653;28;20207;-66
2023/04/29 12:59:13;;;;;;;4.47;4.07;;;17.40;1.00;;;;;;8254777;28;20205;-65
2023/04/29 13:03:14;;;;;;;4.53;4.13;;;17.60;1.00;;;;;;8254405;28;20187;-66
2023/04/29 13:07:18;;;;;;;5.80;4.10;;;18.00;1.00;;;;;;8304106;28;20269;-63
2023/04/29 13:11:23;;;;;;;4.57;4.17;;;17.80;1.00;;;;;;8289612;28;20227;-65
2023/04/29 13:15:24;;;;;;;3.80;3.50;;;17.60;1.00;;;;;;8304788;28;20214;-64
2023/04/29 13:19:25;;;;;;;4.83;3.70;;;17.40;1.00;;;;;;8303179;28;20214;-66
2023/04/29 13:23:26;;;;;;;4.80;4.03;;;17.30;1.00;;;;;;8318617;28;20239;-66
2023/04/29 13:27:30;;;;;;;4.90;4.40;;;17.40;1.00;;;;;;8305807;28;20191;-66
2023/04/29 13:31:34;;;;;;;4.83;4.43;;;17.20;1.00;;;;;;8322278;28;20195;-65
2023/04/29 13:35:40;;;;;;;5.47;4.73;;;16.90;1.00;;;;;;8302900;28;20267;-64
2023/04/29 13:39:41;;;;;;;7.50;5.07;;;16.70;5.60;;;;;;8305601;28;20210;-67
2023/04/29 13:43:42;;;;;;;6.03;5.43;;;16.70;8.10;;;;;;8308216;28;20191;-66
2023/04/29 13:47:43;;;;;;;6.83;5.93;;;16.50;27.90;;;;;;8301471;28;20209;-65
2023/04/29 13:51:46;;;;;;;6.23;5.00;;;15.80;99.90;;;;;;8302626;28;20195;-66
2023/04/29 13:55:47;;;;;;;10.83;8.90;;;15.50;99.90;;;;;;8304923;28;20198;-65
2023/04/29 13:59:51;;;;;;;4.57;4.13;;;15.00;99.90;;;;;;8300307;28;20222;-66
2023/04/29 14:03:55;;;;;;;2.83;2.57;;;14.70;99.90;;;;;;8304207;28;20179;-67
2023/04/29 14:07:56;;;;;;;3.60;2.43;;;14.10;99.90;;;;;;8296651;28;20278;-66
2023/04/29 14:11:58;;;;;;;3.90;3.03;;;13.70;99.90;;;;;;8298024;28;20194;-67
2023/04/29 14:16:00;;;;;;;1.70;1.60;;;13.50;99.90;;;;;;8320155;28;20217;-68
2023/04/29 14:20:02;;;;;;;1.70;1.60;;;13.20;99.90;;;;;;8317599;28;20206;-68
2023/04/29 14:24:03;;;;;;;1.80;1.70;;;13.10;99.90;;;;;;8316591;28;20179;-67
2023/04/29 14:28:05;;;;;;;2.53;2.13;;;13.10;99.90;;;;;;8301859;28;20187;-65
2023/04/29 14:32:06;;;;;;;1.80;1.70;;;13.10;99.90;;;;;;8314659;28;20186;-66
2023/04/29 14:36:08;;;;;;;3.63;2.20;;;13.30;99.90;;;;;;8302875;28;20285;-65
2023/04/29 14:40:09;;;;;;;2.73;2.53;;;13.40;99.90;;;;;;8294893;28;20258;-65
2023/04/29 14:44:10;;;;;;;3.30;2.80;;;13.20;99.90;;;;;;8299010;28;20188;-67
2023/04/29 14:48:14;;;;;;;2.90;2.70;;;13.20;99.90;;;;;;8300611;28;20190;-65
2023/04/29 14:52:15;;;;;;;3.40;3.10;;;13.30;99.90;;;;;;8315405;28;20182;-68
2023/04/29 14:56:16;;;;;;;3.03;2.73;;;13.20;99.90;;;;;;8319602;28;20233;-66
2023/04/29 15:00:18;;;;;;;3.90;3.47;;;13.20;99.90;;;;;;8302015;28;20174;-64
2023/04/29 15:04:20;;;;;;;3.00;2.80;;;13.20;99.90;;;;;;8299479;28;20208;-67
2023/04/29 15:08:24;;;;;;;3.23;2.93;;;12.80;99.90;;;;;;8303946;28;20194;-67
2023/04/29 15:12:25;;;;;;;2.43;2.10;;;12.50;99.90;;;;;;8304632;28;20297;-67
2023/04/29 15:16:27;;;;;;;3.20;2.87;;;12.20;1.00;;;;;;8299215;28;20302;-67
2023/04/29 15:20:28;;;;;;;4.33;3.93;;;11.90;99.90;;;;;;8299332;28;20243;-67
2023/04/29 15:24:29;;;;;;;6.07;5.23;;;11.70;1.00;;;;;;8299331;28;20440;-65
2023/04/29 15:28:30;;;;;;;10.10;8.17;;;11.60;99.90;;;;;;8298679;28;20277;-67
2023/04/29 15:32:31;;;;;;;12.67;10.13;;;11.60;1.00;;;;;;8314284;28;20196;-66
2023/04/29 15:36:33;;;;;;;13.57;10.83;;;11.40;99.90;;;;;;8301442;28;20215;-67
2023/04/29 15:40:34;;;;;;;12.80;10.20;;;11.40;1.00;;;;;;8300979;28;20195;-67
2023/04/29 15:44:35;;;;;;;14.60;11.70;;;11.40;99.90;;;;;;8313177;28;20184;-67
2023/04/29 15:48:37;;;;;;;14.30;11.00;;;11.20;1.00;;;;;;8302430;28;20191;-68
2023/04/29 15:52:38;;;;;;;14.30;11.27;;;11.10;1.00;;;;;;8296359;28;20193;-68
2023/04/29 15:56:39;;;;;;;12.70;10.20;;;11.10;1.00;;;;;;8293136;28;20215;-66
2023/04/29 16:00:40;;;;;;;14.73;10.03;;;11.10;99.90;;;;;;8296811;28;20182;-66
2023/04/29 16:04:41;;;;;;;11.37;9.67;;;11.00;99.90;;;;;;8300929;28;20187;-66
2023/04/29 16:08:42;;;;;;;10.23;8.43;;;11.00;16.00;;;;;;8300492;28;20189;-68
2023/04/29 16:12:45;;;;;;;10.63;8.53;;;11.00;99.90;;;;;;8292637;28;20191;-67
2023/04/29 16:16:49;;;;;;;10.20;8.07;;;10.80;1.00;;;;;;8311434;28;20219;-68
2023/04/29 16:20:51;;;;;;;10.30;8.80;;;10.80;5.60;;;;;;8311834;28;20201;-68
2023/04/29 16:24:52;;;;;;;9.17;8.20;;;10.90;1.00;;;;;;8306358;28;20203;-67
2023/04/29 16:28:53;;;;;;;9.47;8.50;;;10.90;34.20;;;;;;8306280;28;20195;-69
2023/04/29 16:32:54;;;;;;;8.00;7.20;;;10.90;19.30;;;;;;8321337;28;20191;-68
2023/04/29 16:36:55;;;;;;;11.03;7.50;;;10.90;1.00;;;;;;8317200;28;20206;-68
2023/04/29 16:40:56;;;;;;;10.17;9.10;;;10.90;97.90;;;;;;8303006;28;20198;-68
2023/04/29 16:45:00;;;;;;;13.33;10.90;;;10.90;99.90;;;;;;8315988;28;20183;-66
2023/04/29 16:49:05;;;;;;;15.30;12.30;;;10.80;1.00;;;;;;8310494;28;20344;-68
2023/04/29 16:53:09;;;;;;;20.40;15.60;;;10.80;51.10;;;;;;8309843;28;20202;-68
2023/04/29 16:57:13;;;;;;;20.87;17.27;;;10.80;1.00;;;;;;8298807;28;20203;-67
2023/04/29 17:01:14;;;;;;;24.10;18.57;;;10.80;99.90;;;;;;8299345;28;20186;-68
2023/04/29 17:05:18;;;;;;;22.87;18.77;;;10.80;79.70;;;;;;8301074;28;20183;-68
2023/04/29 17:09:24;;;;;;;26.13;20.87;;;10.80;99.90;;;;;;8304293;28;20238;-68
2023/04/29 17:13:26;;;;;;;28.03;21.80;;;10.80;99.90;;;;;;8313321;28;20212;-68
2023/04/29 17:17:27;;;;;;;29.40;22.13;;;10.80;1.00;;;;;;8295958;28;20238;-67
2023/04/29 17:21:29;;;;;;;30.07;21.60;;;10.80;99.90;;;;;;8303339;28;20201;-66
2023/04/29 17:25:31;;;;;;;25.77;20.63;;;10.80;99.90;;;;;;8313845;28;20194;-67
2023/04/29 17:29:32;;;;;;;28.63;21.97;;;10.80;99.90;;;;;;8300958;28;20197;-67
2023/04/29 17:33:34;;;;;;;25.33;20.23;;;10.80;1.00;;;;;;8302850;28;20195;-67
2023/04/29 17:37:39;;;;;;;26.00;20.60;;;10.80;1.00;;;;;;8306725;28;20289;-67
2023/04/29 17:41:40;;;;;;;47.70;30.57;;;10.80;1.00;;;;;;8298248;28;20233;-68
2023/04/29 17:45:41;;;;;;;36.00;26.07;;;10.80;1.00;;;;;;8307233;28;20231;-68
2023/04/29 17:49:45;;;;;;;32.40;24.53;;;10.80;1.00;;;;;;8311112;28;20351;-69
2023/04/29 17:53:49;;;;;;;29.03;22.63;;;10.80;1.00;;;;;;8310833;28;20183;-67
2023/04/29 17:57:50;;;;;;;27.73;21.07;;;10.70;1.00;;;;;;8312537;28;20214;-68
2023/04/29 18:01:51;;;;;;;30.00;23.60;;;10.70;1.00;;;;;;8308633;28;20292;-67
2023/04/29 18:05:53;;;;;;;30.63;23.77;;;10.60;99.90;;;;;;8315245;28;20206;-68
2023/04/29 18:09:54;;;;;;;29.23;23.33;;;10.60;1.00;;;;;;8300187;28;20269;-69
2023/04/29 18:13:57;;;;;;;29.30;23.73;;;10.60;99.90;;;;;;8297426;28;20183;-66
2023/04/29 18:18:02;;;;;;;31.93;23.67;;;10.50;1.00;;;;;;8298476;28;20229;-67
2023/04/29 18:22:08;;;;;;;28.70;23.83;;;10.50;99.90;;;;;;8307118;28;20201;-66
2023/04/29 18:26:09;;;;;;;31.80;24.50;;;10.50;1.00;;;;;;8299166;28;20270;-65
2023/04/29 18:30:25;;;;;;;30.53;24.83;;;10.50;99.90;;;;;;8310871;28;20186;-63
2023/04/29 18:34:27;;;;;;;33.97;25.70;;;10.50;1.00;;;;;;8312536;28;20184;-64
2023/04/29 18:38:28;;;;;;;34.87;26.63;;;10.40;1.00;;;;;;8295635;28;20190;-66
2023/04/29 18:42:29;;;;;;;35.20;26.63;;;10.40;99.90;;;;;;8296322;28;20241;-65
2023/04/29 18:46:39;;;;;;;32.73;27.43;;;10.40;99.90;;;;;;8300688;28;20209;-65
2023/04/29 18:50:41;;;;;;;32.73;25.23;;;10.40;99.90;;;;;;8304111;28;20192;-65
2023/04/29 18:54:45;;;;;;;34.10;27.40;;;10.40;99.90;;;;;;8293918;28;20216;-64
2023/04/29 18:58:46;;;;;;;34.80;26.93;;;10.40;1.00;;;;;;8309432;28;20209;-66
2023/04/29 19:02:47;;;;;;;33.97;25.97;;;10.40;99.90;;;;;;8309966;28;20182;-65
2023/04/29 19:06:51;;;;;;;34.80;27.83;;;10.40;14.00;;;;;;8303649;28;20257;-66
2023/04/29 19:10:55;;;;;;;35.27;26.73;;;10.40;1.00;;;;;;8295208;28;20198;-67
2023/04/29 19:14:59;;;;;;;34.20;26.27;;;10.40;1.00;;;;;;8294334;28;20258;-64
2023/04/29 19:19:00;;;;;;;33.83;26.33;;;10.40;99.90;;;;;;8299660;28;20183;-65
2023/04/29 19:23:01;;;;;;;32.87;26.23;;;10.50;99.90;;;;;;8303001;28;20189;-63
2023/04/29 19:27:05;;;;;;;35.27;26.87;;;10.40;8.40;;;;;;8299832;28;20217;-66
2023/04/29 19:31:06;;;;;;;32.13;25.73;;;10.40;99.90;;;;;;8296178;28;20194;-64
2023/04/29 19:35:07;;;;;;;30.77;25.87;;;10.40;99.90;;;;;;8302401;28;20287;-64
2023/04/29 19:39:09;;;;;;;34.53;26.63;;;10.40;1.00;;;;;;8298482;28;20225;-66
2023/04/29 19:43:12;;;;;;;34.77;27.13;;;10.40;99.90;;;;;;8303606;28;20305;-67
2023/04/29 19:47:13;;;;;;;37.67;29.43;;;10.30;99.90;;;;;;8293229;28;20202;-66
2023/04/29 19:51:14;;;;;;;36.60;27.93;;;10.30;1.00;;;;;;8298574;28;20195;-66
2023/04/29 19:55:18;;;;;;;32.33;26.27;;;10.30;1.00;;;;;;8293777;28;20225;-66
2023/04/29 19:59:25;;;;;;;32.00;26.10;;;10.30;99.90;;;;;;8314763;28;20257;-66
2023/04/29 20:03:29;;;;;;;33.43;26.27;;;10.30;1.00;;;;;;8293338;28;20195;-65
2023/04/29 20:07:30;;;;;;;34.93;25.30;;;10.30;1.00;;;;;;8294465;28;20197;-64
2023/04/29 20:11:31;;;;;;;35.03;25.43;;;10.30;1.00;;;;;;8295724;28;20194;-65
2023/04/29 20:15:32;;;;;;;32.30;25.00;;;10.30;99.90;;;;;;8298372;28;20211;-64
2023/04/29 20:19:33;;;;;;;36.37;26.63;;;10.30;1.00;;;;;;8294230;28;20203;-65
2023/04/29 20:23:34;;;;;;;34.10;25.53;;;10.20;99.90;;;;;;8299805;28;20196;-64
2023/04/29 20:27:35;;;;;;;33.73;25.63;;;10.20;1.00;;;;;;8286202;28;20221;-64
2023/04/29 20:31:40;;;;;;;35.87;28.37;;;10.20;1.00;;;;;;8298484;28;20260;-65
2023/04/29 20:35:42;;;;;;;35.37;27.60;;;10.20;1.00;;;;;;8298787;28;20210;-64
2023/04/29 20:39:43;;;;;;;35.67;27.67;;;10.20;1.00;;;;;;8304262;28;20189;-67
2023/04/29 20:43:44;;;;;;;35.57;26.97;;;10.10;99.90;;;;;;8296430;28;20191;-64
2023/04/29 20:47:45;;;;;;;37.23;28.03;;;10.10;99.90;;;;;;8296645;28;20196;-64
2023/04/29 20:51:48;;;;;;;33.83;27.83;;;10.10;99.90;;;;;;8294464;28;20206;-65
2023/04/29 20:55:49;;;;;;;36.93;28.87;;;10.10;99.90;;;;;;8294472;28;20226;-64
2023/04/29 20:59:50;;;;;;;37.57;27.73;;;10.10;99.90;;;;;;8312579;28;20185;-64
2023/04/29 21:03:51;;;;;;;37.07;27.33;;;10.00;99.90;;;;;;8298390;28;20191;-63